sensor_id;sensor_type;location;lat;lon;timestamp;temperature;humidity
11540;DHT22;5826;54.756;9.192;2024-02-14T00:01:14;7.30;99.90
11540;DHT22;5826;54.756;9.192;2024-02-14T00:03:40;7.20;99.90
11540;DHT22;5826;54.756;9.192;2024-02-14T00:06:06;7.20;99.90
11540;DHT22;5826;54.756;9.192;2024-02-14T00:08:31;7.20;99.90
11540;DHT22;5826;54.756;9.192;2024-02-14T00:10:57;7.20;99.90
11540;DHT22;5826;54.756;9.192;2024-02-14T00:13:22;7.10;99.90
11540;DHT22;5826;54.756;9.192;2024-02-14T00:15:48;7.10;99.90
11540;DHT22;5826;54.756;9.192;2024-02-14T00:18:14;7.10;99.90
11540;DHT22;5826;54.756;9.192;2024-02-14T00:20:40;7.10;99.90
11540;DHT22;5826;54.756;9.192;2024-02-14T00:23:06;7.10;99.90
11540;DHT22;5826;54.756;9.192;2024-02-14T00:25:32;7.10;99.90
11540;DHT22;5826;54.756;9.192;2024-02-14T00:27:58;7.20;99.90
11540;DHT22;5826;54.756;9.192;2024-02-14T00:30:26;7.20;99.90
11540;DHT22;5826;54.756;9.192;2024-02-14T00:32:52;7.20;99.90
11540;DHT22;5826;54.756;9.192;2024-02-14T00:35:17;7.20;99.90
11540;DHT22;5826;54.756;9.192;2024-02-14T00:37:43;7.20;99.90
11540;DHT22;5826;54.756;9.192;2024-02-14T00:40:09;7.20;99.90
11540;DHT22;5826;54.756;9.192;2024-02-14T00:42:34;7.20;99.90
11540;DHT22;5826;54.756;9.192;2024-02-14T00:45:00;7.20;99.90
11540;DHT22;5826;54.756;9.192;2024-02-14T00:47:25;7.20;99.90
11540;DHT22;5826;54.756;9.192;2024-02-14T00:49:51;7.20;99.90
11540;DHT22;5826;54.756;9.192;2024-02-14T00:52:17;7.20;99.90
11540;DHT22;5826;54.756;9.192;2024-02-14T00:54:43;7.20;99.90
11540;DHT22;5826;54.756;9.192;2024-02-14T00:57:08;7.20;99.90
11540;DHT22;5826;54.756;9.192;2024-02-14T00:59:34;7.20;99.90
11540;DHT22;5826;54.756;9.192;2024-02-14T01:01:59;7.20;99.90
11540;DHT22;5826;54.756;9.192;2024-02-14T01:04:25;7.20;99.90
11540;DHT22;5826;54.756;9.192;2024-02-14T01:06:50;7.20;99.90
11540;DHT22;5826;54.756;9.192;2024-02-14T01:09:18;7.30;99.90
11540;DHT22;5826;54.756;9.192;2024-02-14T01:11:44;7.30;99.90
11540;DHT22;5826;54.756;9.192;2024-02-14T01:14:09;7.20;99.90
11540;DHT22;5826;54.756;9.192;2024-02-14T01:16:42;7.20;99.90
11540;DHT22;5826;54.756;9.192;2024-02-14T01:19:07;7.30;99.90
11540;DHT22;5826;54.756;9.192;2024-02-14T01:21:33;7.20;99.90
11540;DHT22;5826;54.756;9.192;2024-02-14T01:23:58;7.20;99.90
11540;DHT22;5826;54.756;9.192;2024-02-14T01:26:24;7.20;99.90
11540;DHT22;5826;54.756;9.192;2024-02-14T01:28:50;7.20;99.90
11540;DHT22;5826;54.756;9.192;2024-02-14T01:31:15;7.30;99.90
11540;DHT22;5826;54.756;9.192;2024-02-14T01:33:40;7.30;99.90
11540;DHT22;5826;54.756;9.192;2024-02-14T01:36:06;7.30;99.90
11540;DHT22;5826;54.756;9.192;2024-02-14T01:38:31;7.30;99.90
11540;DHT22;5826;54.756;9.192;2024-02-14T01:41:01;7.30;99.90
11540;DHT22;5826;54.756;9.192;2024-02-14T01:43:28;7.30;99.90
11540;DHT22;5826;54.756;9.192;2024-02-14T01:45:55;7.30;99.90
11540;DHT22;5826;54.756;9.192;2024-02-14T01:48:21;7.30;99.90
11540;DHT22;5826;54.756;9.192;2024-02-14T01:50:47;7.30;99.90
11540;DHT22;5826;54.756;9.192;2024-02-14T01:53:13;7.30;99.90
11540;DHT22;5826;54.756;9.192;2024-02-14T01:55:38;7.30;99.90
11540;DHT22;5826;54.756;9.192;2024-02-14T01:58:04;7.30;99.90
11540;DHT22;5826;54.756;9.192;2024-02-14T02:00:33;7.30;99.90
11540;DHT22;5826;54.756;9.192;2024-02-14T02:03:00;7.30;99.90
11540;DHT22;5826;54.756;9.192;2024-02-14T02:05:25;7.30;99.90
11540;DHT22;5826;54.756;9.192;2024-02-14T02:07:51;7.30;99.90
11540;DHT22;5826;54.756;9.192;2024-02-14T02:10:16;7.30;99.90
11540;DHT22;5826;54.756;9.192;2024-02-14T02:12:42;7.30;99.90
11540;DHT22;5826;54.756;9.192;2024-02-14T02:15:08;7.30;99.90
11540;DHT22;5826;54.756;9.192;2024-02-14T02:17:39;7.30;99.90
11540;DHT22;5826;54.756;9.192;2024-02-14T02:20:06;7.30;99.90
11540;DHT22;5826;54.756;9.192;2024-02-14T02:22:34;7.30;99.90
11540;DHT22;5826;54.756;9.192;2024-02-14T02:25:03;7.30;99.90
11540;DHT22;5826;54.756;9.192;2024-02-14T02:27:33;7.30;99.90
11540;DHT22;5826;54.756;9.192;2024-02-14T02:30:00;7.30;99.90
11540;DHT22;5826;54.756;9.192;2024-02-14T02:32:26;7.30;99.90
11540;DHT22;5826;54.756;9.192;2024-02-14T02:34:52;7.30;99.90
11540;DHT22;5826;54.756;9.192;2024-02-14T02:37:17;7.30;99.90
11540;DHT22;5826;54.756;9.192;2024-02-14T02:39:43;7.20;99.90
11540;DHT22;5826;54.756;9.192;2024-02-14T02:42:08;7.20;99.90
11540;DHT22;5826;54.756;9.192;2024-02-14T02:44:37;7.20;99.90
11540;DHT22;5826;54.756;9.192;2024-02-14T02:47:03;7.20;99.90
11540;DHT22;5826;54.756;9.192;2024-02-14T02:49:29;7.20;99.90
11540;DHT22;5826;54.756;9.192;2024-02-14T02:51:54;7.20;99.90
11540;DHT22;5826;54.756;9.192;2024-02-14T02:54:20;7.20;99.90
11540;DHT22;5826;54.756;9.192;2024-02-14T02:56:47;7.20;99.90
11540;DHT22;5826;54.756;9.192;2024-02-14T02:59:13;7.20;99.90
11540;DHT22;5826;54.756;9.192;2024-02-14T03:01:38;7.20;99.90
11540;DHT22;5826;54.756;9.192;2024-02-14T03:04:05;7.20;99.90
11540;DHT22;5826;54.756;9.192;2024-02-14T03:06:31;7.20;99.90
11540;DHT22;5826;54.756;9.192;2024-02-14T03:08:56;7.20;99.90
11540;DHT22;5826;54.756;9.192;2024-02-14T03:11:22;7.20;99.90
11540;DHT22;5826;54.756;9.192;2024-02-14T03:13:48;7.20;99.90
11540;DHT22;5826;54.756;9.192;2024-02-14T03:16:16;7.20;99.90
11540;DHT22;5826;54.756;9.192;2024-02-14T03:18:43;7.20;99.90
11540;DHT22;5826;54.756;9.192;2024-02-14T03:21:08;7.20;99.90
11540;DHT22;5826;54.756;9.192;2024-02-14T03:23:34;7.20;99.90
11540;DHT22;5826;54.756;9.192;2024-02-14T03:25:59;7.10;99.90
11540;DHT22;5826;54.756;9.192;2024-02-14T03:28:25;7.10;99.90
11540;DHT22;5826;54.756;9.192;2024-02-14T03:30:51;7.10;99.90
11540;DHT22;5826;54.756;9.192;2024-02-14T03:33:17;7.10;99.90
11540;DHT22;5826;54.756;9.192;2024-02-14T03:35:43;7.10;99.90
11540;DHT22;5826;54.756;9.192;2024-02-14T03:38:08;7.10;99.90
11540;DHT22;5826;54.756;9.192;2024-02-14T03:40:34;7.10;99.90
11540;DHT22;5826;54.756;9.192;2024-02-14T03:43:01;7.10;99.90
11540;DHT22;5826;54.756;9.192;2024-02-14T03:45:27;7.10;99.90
11540;DHT22;5826;54.756;9.192;2024-02-14T03:47:55;7.10;99.90
11540;DHT22;5826;54.756;9.192;2024-02-14T03:50:22;7.10;99.90
11540;DHT22;5826;54.756;9.192;2024-02-14T03:52:47;7.10;99.90
11540;DHT22;5826;54.756;9.192;2024-02-14T03:55:14;7.10;99.90
11540;DHT22;5826;54.756;9.192;2024-02-14T03:57:40;7.00;99.90
11540;DHT22;5826;54.756;9.192;2024-02-14T04:00:06;7.00;99.90
11540;DHT22;5826;54.756;9.192;2024-02-14T04:02:34;7.10;99.90
11540;DHT22;5826;54.756;9.192;2024-02-14T04:05:00;7.10;99.90
11540;DHT22;5826;54.756;9.192;2024-02-14T04:07:25;7.10;99.90
11540;DHT22;5826;54.756;9.192;2024-02-14T04:09:51;7.00;99.90
11540;DHT22;5826;54.756;9.192;2024-02-14T04:12:17;7.00;99.90
11540;DHT22;5826;54.756;9.192;2024-02-14T04:14:43;7.00;99.90
11540;DHT22;5826;54.756;9.192;2024-02-14T04:17:08;7.00;99.90
11540;DHT22;5826;54.756;9.192;2024-02-14T04:19:34;7.00;99.90
11540;DHT22;5826;54.756;9.192;2024-02-14T04:21:59;7.00;99.90
11540;DHT22;5826;54.756;9.192;2024-02-14T04:24:25;7.00;99.90
11540;DHT22;5826;54.756;9.192;2024-02-14T04:26:53;7.00;99.90
11540;DHT22;5826;54.756;9.192;2024-02-14T04:29:20;7.00;99.90
11540;DHT22;5826;54.756;9.192;2024-02-14T04:31:46;7.00;99.90
11540;DHT22;5826;54.756;9.192;2024-02-14T04:34:11;7.00;99.90
11540;DHT22;5826;54.756;9.192;2024-02-14T04:36:39;7.00;99.90
11540;DHT22;5826;54.756;9.192;2024-02-14T04:39:05;7.00;99.90
11540;DHT22;5826;54.756;9.192;2024-02-14T04:41:31;7.00;99.90
11540;DHT22;5826;54.756;9.192;2024-02-14T04:43:56;7.10;99.90
11540;DHT22;5826;54.756;9.192;2024-02-14T04:46:22;7.10;99.90
11540;DHT22;5826;54.756;9.192;2024-02-14T04:48:48;7.10;99.90
11540;DHT22;5826;54.756;9.192;2024-02-14T04:51:13;7.10;99.90
11540;DHT22;5826;54.756;9.192;2024-02-14T04:53:39;7.10;99.90
11540;DHT22;5826;54.756;9.192;2024-02-14T04:56:04;7.10;99.90
11540;DHT22;5826;54.756;9.192;2024-02-14T04:58:30;7.00;99.90
11540;DHT22;5826;54.756;9.192;2024-02-14T05:00:55;7.00;99.90
11540;DHT22;5826;54.756;9.192;2024-02-14T05:03:21;7.00;99.90
11540;DHT22;5826;54.756;9.192;2024-02-14T05:05:49;7.00;99.90
11540;DHT22;5826;54.756;9.192;2024-02-14T05:08:15;7.00;99.90
11540;DHT22;5826;54.756;9.192;2024-02-14T05:10:41;7.00;99.90
11540;DHT22;5826;54.756;9.192;2024-02-14T05:13:06;7.10;99.90
11540;DHT22;5826;54.756;9.192;2024-02-14T05:15:32;7.00;99.90
11540;DHT22;5826;54.756;9.192;2024-02-14T05:17:57;7.00;99.90
11540;DHT22;5826;54.756;9.192;2024-02-14T05:20:23;7.00;99.90
11540;DHT22;5826;54.756;9.192;2024-02-14T05:22:48;7.00;99.90
11540;DHT22;5826;54.756;9.192;2024-02-14T05:25:14;7.00;99.90
11540;DHT22;5826;54.756;9.192;2024-02-14T05:27:39;7.00;99.90
11540;DHT22;5826;54.756;9.192;2024-02-14T05:30:05;7.00;99.90
11540;DHT22;5826;54.756;9.192;2024-02-14T05:32:33;7.00;99.90
11540;DHT22;5826;54.756;9.192;2024-02-14T05:34:59;7.00;99.90
11540;DHT22;5826;54.756;9.192;2024-02-14T05:37:25;7.00;99.90
11540;DHT22;5826;54.756;9.192;2024-02-14T05:39:53;7.00;99.90
11540;DHT22;5826;54.756;9.192;2024-02-14T05:42:19;7.00;99.90
11540;DHT22;5826;54.756;9.192;2024-02-14T05:44:44;7.00;99.90
11540;DHT22;5826;54.756;9.192;2024-02-14T05:47:10;7.00;99.90
11540;DHT22;5826;54.756;9.192;2024-02-14T05:49:38;7.00;99.90
11540;DHT22;5826;54.756;9.192;2024-02-14T05:52:04;7.00;99.90
11540;DHT22;5826;54.756;9.192;2024-02-14T05:54:29;7.00;99.90
11540;DHT22;5826;54.756;9.192;2024-02-14T05:56:55;7.00;99.90
11540;DHT22;5826;54.756;9.192;2024-02-14T05:59:22;7.00;99.90
11540;DHT22;5826;54.756;9.192;2024-02-14T06:01:47;7.00;99.90
11540;DHT22;5826;54.756;9.192;2024-02-14T06:04:12;7.00;99.90
11540;DHT22;5826;54.756;9.192;2024-02-14T06:06:38;7.00;99.90
11540;DHT22;5826;54.756;9.192;2024-02-14T06:09:03;7.00;99.90
11540;DHT22;5826;54.756;9.192;2024-02-14T06:11:35;7.10;99.90
11540;DHT22;5826;54.756;9.192;2024-02-14T06:14:00;7.10;99.90
11540;DHT22;5826;54.756;9.192;2024-02-14T06:16:26;7.10;99.90
11540;DHT22;5826;54.756;9.192;2024-02-14T06:18:52;7.10;99.90
11540;DHT22;5826;54.756;9.192;2024-02-14T06:21:18;7.10;99.90
11540;DHT22;5826;54.756;9.192;2024-02-14T06:23:44;7.10;99.90
11540;DHT22;5826;54.756;9.192;2024-02-14T06:26:12;7.10;99.90
11540;DHT22;5826;54.756;9.192;2024-02-14T06:28:38;7.10;99.90
11540;DHT22;5826;54.756;9.192;2024-02-14T06:31:03;7.10;99.90
11540;DHT22;5826;54.756;9.192;2024-02-14T06:33:29;7.20;99.90
11540;DHT22;5826;54.756;9.192;2024-02-14T06:35:54;7.10;99.90
11540;DHT22;5826;54.756;9.192;2024-02-14T06:38:20;7.20;99.90
11540;DHT22;5826;54.756;9.192;2024-02-14T06:40:45;7.20;99.90
11540;DHT22;5826;54.756;9.192;2024-02-14T06:43:11;7.20;99.90
11540;DHT22;5826;54.756;9.192;2024-02-14T06:45:37;7.20;99.90
11540;DHT22;5826;54.756;9.192;2024-02-14T06:48:03;7.20;99.90
11540;DHT22;5826;54.756;9.192;2024-02-14T06:50:29;7.20;99.90
11540;DHT22;5826;54.756;9.192;2024-02-14T06:52:55;7.20;99.90
11540;DHT22;5826;54.756;9.192;2024-02-14T06:55:25;7.20;99.90
11540;DHT22;5826;54.756;9.192;2024-02-14T06:57:50;7.10;99.90
11540;DHT22;5826;54.756;9.192;2024-02-14T07:00:16;7.20;99.90
11540;DHT22;5826;54.756;9.192;2024-02-14T07:02:42;7.20;99.90
11540;DHT22;5826;54.756;9.192;2024-02-14T07:05:08;7.20;99.90
11540;DHT22;5826;54.756;9.192;2024-02-14T07:07:38;7.20;99.90
11540;DHT22;5826;54.756;9.192;2024-02-14T07:10:04;7.20;99.90
11540;DHT22;5826;54.756;9.192;2024-02-14T07:12:31;7.20;99.90
11540;DHT22;5826;54.756;9.192;2024-02-14T07:14:57;7.20;99.90
11540;DHT22;5826;54.756;9.192;2024-02-14T07:17:23;7.20;99.90
11540;DHT22;5826;54.756;9.192;2024-02-14T07:19:48;7.20;99.90
11540;DHT22;5826;54.756;9.192;2024-02-14T07:22:15;7.20;99.90
11540;DHT22;5826;54.756;9.192;2024-02-14T07:24:41;7.20;99.90
11540;DHT22;5826;54.756;9.192;2024-02-14T07:27:08;7.20;99.90
11540;DHT22;5826;54.756;9.192;2024-02-14T07:29:33;7.20;99.90
11540;DHT22;5826;54.756;9.192;2024-02-14T07:32:02;7.20;99.90
11540;DHT22;5826;54.756;9.192;2024-02-14T07:34:27;7.30;99.90
11540;DHT22;5826;54.756;9.192;2024-02-14T07:36:53;7.30;99.90
11540;DHT22;5826;54.756;9.192;2024-02-14T07:39:18;7.30;99.90
11540;DHT22;5826;54.756;9.192;2024-02-14T07:41:44;7.30;99.90
11540;DHT22;5826;54.756;9.192;2024-02-14T07:44:09;7.30;99.90
11540;DHT22;5826;54.756;9.192;2024-02-14T07:46:35;7.30;99.90
11540;DHT22;5826;54.756;9.192;2024-02-14T07:49:00;7.30;99.90
11540;DHT22;5826;54.756;9.192;2024-02-14T07:51:26;7.30;99.90
11540;DHT22;5826;54.756;9.192;2024-02-14T07:53:54;7.30;99.90
11540;DHT22;5826;54.756;9.192;2024-02-14T07:56:19;7.40;99.90
11540;DHT22;5826;54.756;9.192;2024-02-14T07:58:45;7.40;99.90
11540;DHT22;5826;54.756;9.192;2024-02-14T08:01:11;7.40;99.90
11540;DHT22;5826;54.756;9.192;2024-02-14T08:03:36;7.40;99.90
11540;DHT22;5826;54.756;9.192;2024-02-14T08:06:02;7.40;99.90
11540;DHT22;5826;54.756;9.192;2024-02-14T08:08:27;7.40;99.90
11540;DHT22;5826;54.756;9.192;2024-02-14T08:10:53;7.40;99.90
11540;DHT22;5826;54.756;9.192;2024-02-14T08:13:19;7.40;99.90
11540;DHT22;5826;54.756;9.192;2024-02-14T08:15:45;7.40;99.90
11540;DHT22;5826;54.756;9.192;2024-02-14T08:18:11;7.40;99.90
11540;DHT22;5826;54.756;9.192;2024-02-14T08:20:37;7.40;99.90
11540;DHT22;5826;54.756;9.192;2024-02-14T08:23:03;7.40;99.90
11540;DHT22;5826;54.756;9.192;2024-02-14T08:25:29;7.40;99.90
11540;DHT22;5826;54.756;9.192;2024-02-14T08:27:55;7.50;99.90
11540;DHT22;5826;54.756;9.192;2024-02-14T08:30:21;7.50;99.90
11540;DHT22;5826;54.756;9.192;2024-02-14T08:32:46;7.50;99.90
11540;DHT22;5826;54.756;9.192;2024-02-14T08:35:12;7.50;99.90
11540;DHT22;5826;54.756;9.192;2024-02-14T08:37:39;7.60;99.90
11540;DHT22;5826;54.756;9.192;2024-02-14T08:40:06;7.60;99.90
11540;DHT22;5826;54.756;9.192;2024-02-14T08:42:33;7.60;99.90
11540;DHT22;5826;54.756;9.192;2024-02-14T08:44:59;7.60;99.90
11540;DHT22;5826;54.756;9.192;2024-02-14T08:47:24;7.70;99.90
11540;DHT22;5826;54.756;9.192;2024-02-14T08:49:50;7.70;99.90
11540;DHT22;5826;54.756;9.192;2024-02-14T08:52:15;7.70;99.90
11540;DHT22;5826;54.756;9.192;2024-02-14T08:54:40;7.80;99.90
11540;DHT22;5826;54.756;9.192;2024-02-14T08:57:06;7.80;99.90
11540;DHT22;5826;54.756;9.192;2024-02-14T08:59:32;7.80;99.90
11540;DHT22;5826;54.756;9.192;2024-02-14T09:01:57;7.80;99.90
11540;DHT22;5826;54.756;9.192;2024-02-14T09:04:23;7.70;99.90
11540;DHT22;5826;54.756;9.192;2024-02-14T09:06:48;7.80;99.90
11540;DHT22;5826;54.756;9.192;2024-02-14T09:09:14;7.80;99.90
11540;DHT22;5826;54.756;9.192;2024-02-14T09:11:41;7.90;99.90
11540;DHT22;5826;54.756;9.192;2024-02-14T09:14:06;7.90;99.90
11540;DHT22;5826;54.756;9.192;2024-02-14T09:16:35;7.90;99.90
11540;DHT22;5826;54.756;9.192;2024-02-14T09:19:00;7.90;99.90
11540;DHT22;5826;54.756;9.192;2024-02-14T09:21:30;7.90;99.90
11540;DHT22;5826;54.756;9.192;2024-02-14T09:23:56;7.90;99.90
11540;DHT22;5826;54.756;9.192;2024-02-14T09:26:21;7.90;99.90
11540;DHT22;5826;54.756;9.192;2024-02-14T09:28:47;7.90;99.90
11540;DHT22;5826;54.756;9.192;2024-02-14T09:31:17;7.90;99.90
11540;DHT22;5826;54.756;9.192;2024-02-14T09:33:43;7.90;99.90
11540;DHT22;5826;54.756;9.192;2024-02-14T09:36:08;7.90;99.90
11540;DHT22;5826;54.756;9.192;2024-02-14T09:38:34;7.90;99.90
11540;DHT22;5826;54.756;9.192;2024-02-14T09:41:11;7.90;99.90
11540;DHT22;5826;54.756;9.192;2024-02-14T09:43:43;7.90;99.90
11540;DHT22;5826;54.756;9.192;2024-02-14T09:46:12;8.00;99.90
11540;DHT22;5826;54.756;9.192;2024-02-14T09:48:38;7.90;99.90
11540;DHT22;5826;54.756;9.192;2024-02-14T09:51:05;8.00;99.90
11540;DHT22;5826;54.756;9.192;2024-02-14T09:53:32;8.00;99.90
11540;DHT22;5826;54.756;9.192;2024-02-14T09:55:59;8.00;99.90
11540;DHT22;5826;54.756;9.192;2024-02-14T09:58:25;8.00;99.90
11540;DHT22;5826;54.756;9.192;2024-02-14T10:00:50;8.00;99.90
11540;DHT22;5826;54.756;9.192;2024-02-14T10:03:16;8.00;99.90
11540;DHT22;5826;54.756;9.192;2024-02-14T10:05:42;8.00;99.90
11540;DHT22;5826;54.756;9.192;2024-02-14T10:08:07;8.00;99.90
11540;DHT22;5826;54.756;9.192;2024-02-14T10:10:34;8.00;99.90
11540;DHT22;5826;54.756;9.192;2024-02-14T10:13:06;8.00;99.90
11540;DHT22;5826;54.756;9.192;2024-02-14T10:15:32;8.00;99.90
11540;DHT22;5826;54.756;9.192;2024-02-14T10:17:58;8.00;99.90
11540;DHT22;5826;54.756;9.192;2024-02-14T10:20:25;8.00;99.90
11540;DHT22;5826;54.756;9.192;2024-02-14T10:22:52;8.10;99.90
11540;DHT22;5826;54.756;9.192;2024-02-14T10:25:25;8.10;99.90
11540;DHT22;5826;54.756;9.192;2024-02-14T10:27:51;8.10;99.90
11540;DHT22;5826;54.756;9.192;2024-02-14T10:30:16;8.10;99.90
11540;DHT22;5826;54.756;9.192;2024-02-14T10:32:42;8.20;99.90
11540;DHT22;5826;54.756;9.192;2024-02-14T10:35:13;8.20;99.90
11540;DHT22;5826;54.756;9.192;2024-02-14T10:37:39;8.20;99.90
11540;DHT22;5826;54.756;9.192;2024-02-14T10:40:05;8.30;99.90
11540;DHT22;5826;54.756;9.192;2024-02-14T10:42:32;8.30;99.90
11540;DHT22;5826;54.756;9.192;2024-02-14T10:44:57;8.30;99.90
11540;DHT22;5826;54.756;9.192;2024-02-14T10:47:34;8.30;99.90
11540;DHT22;5826;54.756;9.192;2024-02-14T10:50:05;8.30;99.90
11540;DHT22;5826;54.756;9.192;2024-02-14T10:52:34;8.30;99.90
11540;DHT22;5826;54.756;9.192;2024-02-14T10:55:02;8.30;99.90
11540;DHT22;5826;54.756;9.192;2024-02-14T10:57:29;8.20;99.90
11540;DHT22;5826;54.756;9.192;2024-02-14T10:59:55;8.30;99.90
11540;DHT22;5826;54.756;9.192;2024-02-14T11:02:23;8.30;99.90
11540;DHT22;5826;54.756;9.192;2024-02-14T11:04:52;8.40;99.90
11540;DHT22;5826;54.756;9.192;2024-02-14T11:07:19;8.30;99.90
11540;DHT22;5826;54.756;9.192;2024-02-14T11:09:45;8.40;99.90
11540;DHT22;5826;54.756;9.192;2024-02-14T11:12:11;8.30;99.90
11540;DHT22;5826;54.756;9.192;2024-02-14T11:14:37;8.30;99.90
11540;DHT22;5826;54.756;9.192;2024-02-14T11:17:08;8.40;99.90
11540;DHT22;5826;54.756;9.192;2024-02-14T11:19:35;8.40;99.90
11540;DHT22;5826;54.756;9.192;2024-02-14T11:22:11;8.40;99.90
11540;DHT22;5826;54.756;9.192;2024-02-14T11:24:40;8.50;99.90
11540;DHT22;5826;54.756;9.192;2024-02-14T11:27:10;8.50;99.90
11540;DHT22;5826;54.756;9.192;2024-02-14T11:29:39;8.50;99.90
11540;DHT22;5826;54.756;9.192;2024-02-14T11:32:06;8.60;99.90
11540;DHT22;5826;54.756;9.192;2024-02-14T11:34:34;8.50;99.90
11540;DHT22;5826;54.756;9.192;2024-02-14T11:36:59;8.50;99.90
11540;DHT22;5826;54.756;9.192;2024-02-14T11:39:27;8.50;99.90
11540;DHT22;5826;54.756;9.192;2024-02-14T11:41:53;8.50;99.90
11540;DHT22;5826;54.756;9.192;2024-02-14T11:44:19;8.50;99.90
11540;DHT22;5826;54.756;9.192;2024-02-14T11:46:47;8.50;99.90
11540;DHT22;5826;54.756;9.192;2024-02-14T11:49:13;8.60;99.90
11540;DHT22;5826;54.756;9.192;2024-02-14T11:51:38;8.60;99.90
11540;DHT22;5826;54.756;9.192;2024-02-14T11:54:05;8.70;99.90
11540;DHT22;5826;54.756;9.192;2024-02-14T11:56:36;8.70;99.90
11540;DHT22;5826;54.756;9.192;2024-02-14T11:59:04;8.70;99.90
11540;DHT22;5826;54.756;9.192;2024-02-14T12:01:34;8.80;99.90
11540;DHT22;5826;54.756;9.192;2024-02-14T12:04:01;8.80;99.90
11540;DHT22;5826;54.756;9.192;2024-02-14T12:06:34;8.90;99.90
11540;DHT22;5826;54.756;9.192;2024-02-14T12:09:04;8.90;99.90
11540;DHT22;5826;54.756;9.192;2024-02-14T12:11:37;8.90;99.90
11540;DHT22;5826;54.756;9.192;2024-02-14T12:14:06;9.00;99.90
11540;DHT22;5826;54.756;9.192;2024-02-14T12:16:37;9.00;99.90
11540;DHT22;5826;54.756;9.192;2024-02-14T12:19:06;9.10;99.90
11540;DHT22;5826;54.756;9.192;2024-02-14T12:21:39;9.10;99.90
11540;DHT22;5826;54.756;9.192;2024-02-14T12:24:07;9.20;99.90
11540;DHT22;5826;54.756;9.192;2024-02-14T12:26:33;9.20;99.90
11540;DHT22;5826;54.756;9.192;2024-02-14T12:29:02;9.20;99.90
11540;DHT22;5826;54.756;9.192;2024-02-14T12:31:29;9.20;99.90
11540;DHT22;5826;54.756;9.192;2024-02-14T12:33:59;9.20;99.90
11540;DHT22;5826;54.756;9.192;2024-02-14T12:36:28;9.20;99.90
11540;DHT22;5826;54.756;9.192;2024-02-14T12:38:57;9.30;99.90
11540;DHT22;5826;54.756;9.192;2024-02-14T12:41:22;9.30;99.90
11540;DHT22;5826;54.756;9.192;2024-02-14T12:43:58;9.20;99.90
11540;DHT22;5826;54.756;9.192;2024-02-14T12:46:24;9.20;99.90
11540;DHT22;5826;54.756;9.192;2024-02-14T12:48:49;9.20;99.90
11540;DHT22;5826;54.756;9.192;2024-02-14T12:51:15;9.20;99.90
11540;DHT22;5826;54.756;9.192;2024-02-14T12:53:40;9.30;99.90
11540;DHT22;5826;54.756;9.192;2024-02-14T12:56:07;9.20;99.90
11540;DHT22;5826;54.756;9.192;2024-02-14T12:58:33;9.30;99.90
11540;DHT22;5826;54.756;9.192;2024-02-14T13:00:59;9.30;99.90
11540;DHT22;5826;54.756;9.192;2024-02-14T13:03:25;9.30;99.90
11540;DHT22;5826;54.756;9.192;2024-02-14T13:05:51;9.30;99.90
11540;DHT22;5826;54.756;9.192;2024-02-14T13:08:19;9.30;99.90
11540;DHT22;5826;54.756;9.192;2024-02-14T13:10:45;9.30;99.90
11540;DHT22;5826;54.756;9.192;2024-02-14T13:13:10;9.30;99.90
11540;DHT22;5826;54.756;9.192;2024-02-14T13:15:36;9.30;99.90
11540;DHT22;5826;54.756;9.192;2024-02-14T13:18:02;9.30;99.90
11540;DHT22;5826;54.756;9.192;2024-02-14T13:20:28;9.40;99.90
11540;DHT22;5826;54.756;9.192;2024-02-14T13:22:54;9.40;99.90
11540;DHT22;5826;54.756;9.192;2024-02-14T13:25:19;9.40;99.90
11540;DHT22;5826;54.756;9.192;2024-02-14T13:27:45;9.40;99.90
11540;DHT22;5826;54.756;9.192;2024-02-14T13:30:10;9.40;99.90
11540;DHT22;5826;54.756;9.192;2024-02-14T13:32:36;9.40;99.90
11540;DHT22;5826;54.756;9.192;2024-02-14T13:35:02;9.40;99.90
11540;DHT22;5826;54.756;9.192;2024-02-14T13:37:28;9.40;99.90
11540;DHT22;5826;54.756;9.192;2024-02-14T13:39:54;9.40;99.90
11540;DHT22;5826;54.756;9.192;2024-02-14T13:42:20;9.30;99.90
11540;DHT22;5826;54.756;9.192;2024-02-14T13:44:45;9.30;99.90
11540;DHT22;5826;54.756;9.192;2024-02-14T13:47:11;9.30;99.90
11540;DHT22;5826;54.756;9.192;2024-02-14T13:49:36;9.20;99.90
11540;DHT22;5826;54.756;9.192;2024-02-14T13:52:02;9.10;99.90
11540;DHT22;5826;54.756;9.192;2024-02-14T13:54:27;9.10;99.90
11540;DHT22;5826;54.756;9.192;2024-02-14T13:56:53;9.10;99.90
11540;DHT22;5826;54.756;9.192;2024-02-14T13:59:18;9.00;99.90
11540;DHT22;5826;54.756;9.192;2024-02-14T14:01:45;9.00;99.90
11540;DHT22;5826;54.756;9.192;2024-02-14T14:04:11;9.00;99.90
11540;DHT22;5826;54.756;9.192;2024-02-14T14:06:38;9.00;99.90
11540;DHT22;5826;54.756;9.192;2024-02-14T14:09:04;9.00;99.90
11540;DHT22;5826;54.756;9.192;2024-02-14T14:11:30;8.90;99.90
11540;DHT22;5826;54.756;9.192;2024-02-14T14:13:56;8.90;99.90
11540;DHT22;5826;54.756;9.192;2024-02-14T14:16:22;9.00;99.90
11540;DHT22;5826;54.756;9.192;2024-02-14T14:18:49;9.00;99.90
11540;DHT22;5826;54.756;9.192;2024-02-14T14:21:15;9.00;99.90
11540;DHT22;5826;54.756;9.192;2024-02-14T14:23:41;9.00;99.90
11540;DHT22;5826;54.756;9.192;2024-02-14T14:26:06;9.00;99.90
11540;DHT22;5826;54.756;9.192;2024-02-14T14:28:32;9.00;99.90
11540;DHT22;5826;54.756;9.192;2024-02-14T14:30:57;8.90;99.90
11540;DHT22;5826;54.756;9.192;2024-02-14T14:33:25;8.90;99.90
11540;DHT22;5826;54.756;9.192;2024-02-14T14:35:50;8.90;99.90
11540;DHT22;5826;54.756;9.192;2024-02-14T14:38:18;9.00;99.90
11540;DHT22;5826;54.756;9.192;2024-02-14T14:40:43;9.00;99.90
11540;DHT22;5826;54.756;9.192;2024-02-14T14:43:11;9.00;99.90
11540;DHT22;5826;54.756;9.192;2024-02-14T14:45:36;9.00;99.90
11540;DHT22;5826;54.756;9.192;2024-02-14T14:48:04;9.00;99.90
11540;DHT22;5826;54.756;9.192;2024-02-14T14:50:30;9.00;99.90
11540;DHT22;5826;54.756;9.192;2024-02-14T14:52:59;9.00;99.90
11540;DHT22;5826;54.756;9.192;2024-02-14T14:55:25;9.00;99.90
11540;DHT22;5826;54.756;9.192;2024-02-14T14:57:52;9.00;99.90
11540;DHT22;5826;54.756;9.192;2024-02-14T15:00:21;9.00;99.90
11540;DHT22;5826;54.756;9.192;2024-02-14T15:02:47;9.00;99.90
11540;DHT22;5826;54.756;9.192;2024-02-14T15:05:13;9.00;99.90
11540;DHT22;5826;54.756;9.192;2024-02-14T15:07:39;9.00;99.90
11540;DHT22;5826;54.756;9.192;2024-02-14T15:10:06;9.00;99.90
11540;DHT22;5826;54.756;9.192;2024-02-14T15:12:33;9.00;99.90
11540;DHT22;5826;54.756;9.192;2024-02-14T15:15:02;9.00;99.90
11540;DHT22;5826;54.756;9.192;2024-02-14T15:17:27;9.00;99.90
11540;DHT22;5826;54.756;9.192;2024-02-14T15:19:55;9.00;99.90
11540;DHT22;5826;54.756;9.192;2024-02-14T15:22:21;9.00;99.90
11540;DHT22;5826;54.756;9.192;2024-02-14T15:24:46;9.00;99.90
11540;DHT22;5826;54.756;9.192;2024-02-14T15:27:12;9.00;99.90
11540;DHT22;5826;54.756;9.192;2024-02-14T15:29:50;9.00;99.90
11540;DHT22;5826;54.756;9.192;2024-02-14T15:32:34;9.00;99.90
11540;DHT22;5826;54.756;9.192;2024-02-14T15:35:18;9.00;99.90
11540;DHT22;5826;54.756;9.192;2024-02-14T15:37:44;9.00;99.90
11540;DHT22;5826;54.756;9.192;2024-02-14T15:40:17;8.90;99.90
11540;DHT22;5826;54.756;9.192;2024-02-14T15:42:43;8.90;99.90
11540;DHT22;5826;54.756;9.192;2024-02-14T15:45:09;8.90;99.90
11540;DHT22;5826;54.756;9.192;2024-02-14T15:47:42;8.90;99.90
11540;DHT22;5826;54.756;9.192;2024-02-14T15:50:07;8.90;99.90
11540;DHT22;5826;54.756;9.192;2024-02-14T15:52:33;8.90;99.90
11540;DHT22;5826;54.756;9.192;2024-02-14T15:54:58;8.90;99.90
11540;DHT22;5826;54.756;9.192;2024-02-14T15:57:24;8.90;99.90